Time;durP1;ratioP1;P1;durP2;ratioP2;P2;SDS_P1;SDS_P2;PMS_P1;PMS_P2;Temp;Humidity;BMP_temperature;BMP_pressure;BME280_temperature;BME280_humidity;BME280_pressure;Samples;Min_cycle;Max_cycle;Signal;HPM_P1;HPM_P2
2022/05/20 00:01:26;;;;;;;2.78;1.90;;;;;;;23.34;52.41;102179.50;5076676;28;20111;-60
2022/05/20 00:03:51;;;;;;;3.03;1.60;;;;;;;23.21;52.48;102152.00;5085251;28;20048;-60
2022/05/20 00:06:17;;;;;;;2.67;1.38;;;;;;;23.32;52.31;102173.41;5074539;28;20032;-60
2022/05/20 00:08:43;;;;;;;2.38;1.83;;;;;;;23.33;52.57;102177.81;5079065;28;20040;-60
2022/05/20 00:11:08;;;;;;;3.00;2.20;;;;;;;23.32;52.57;102176.13;5084497;28;20039;-60
2022/05/20 00:13:34;;;;;;;4.03;1.95;;;;;;;23.33;52.39;102174.25;5076697;28;20020;-60
2022/05/20 00:16:00;;;;;;;2.45;1.85;;;;;;;23.30;52.21;102171.88;5084758;28;20032;-60
2022/05/20 00:18:25;;;;;;;3.22;2.40;;;;;;;23.31;52.49;102168.13;5076041;28;20041;-61
2022/05/20 00:20:50;;;;;;;1.90;1.70;;;;;;;23.31;52.18;102173.56;5084429;28;20036;-61
2022/05/20 00:23:16;;;;;;;2.33;1.65;;;;;;;23.30;52.39;102170.00;5082921;28;20031;-60
2022/05/20 00:25:47;;;;;;;2.53;2.10;;;;;;;23.27;52.11;102172.19;5084632;28;20028;-61
2022/05/20 00:28:24;;;;;;;2.67;2.00;;;;;;;23.30;52.41;102171.88;5085169;28;20054;-60
2022/05/20 00:30:53;;;;;;;2.80;2.15;;;;;;;23.29;52.19;102164.75;5077564;28;20032;-60
2022/05/20 00:33:18;;;;;;;;;;;;;;;23.28;52.04;102166.63;5084497;28;20062;-60
2022/05/20 00:35:45;;;;;;;2.40;1.60;;;;;;;23.27;52.09;102167.59;5076097;28;20042;-60
2022/05/20 00:38:11;;;;;;;2.35;1.70;;;;;;;23.27;51.76;102164.91;5084598;28;20046;-60
2022/05/20 00:40:36;;;;;;;2.22;2.03;;;;;;;23.26;52.11;102162.34;5082359;28;20036;-60
2022/05/20 00:43:25;;;;;;;2.17;1.75;;;;;;;23.26;52.10;102163.22;5077072;28;20546;-61
2022/05/20 00:45:51;;;;;;;2.05;1.63;;;;;;;23.24;51.93;102162.53;5079976;28;20063;-61
2022/05/20 00:48:16;;;;;;;3.08;1.33;;;;;;;23.25;51.75;102161.53;5072400;28;20094;-60
2022/05/20 00:50:44;;;;;;;2.50;1.70;;;;;;;23.24;51.99;102157.13;5082035;28;20614;-60
2022/05/20 00:53:12;;;;;;;1.85;1.58;;;;;;;23.24;51.96;102156.28;5051504;28;1012053;-60
2022/05/20 00:55:37;;;;;;;2.15;1.52;;;;;;;23.23;51.92;102149.13;5084052;28;20094;-60
2022/05/20 00:58:07;;;;;;;2.22;1.58;;;;;;;23.23;51.94;102154.53;5085354;28;20032;-61
2022/05/20 01:00:37;;;;;;;2.03;1.38;;;;;;;23.22;51.87;102153.69;5085034;28;20029;-58
2022/05/20 01:03:06;;;;;;;3.38;2.15;;;;;;;23.22;51.85;102151.00;5076402;28;20024;-60
2022/05/20 01:05:36;;;;;;;2.85;1.70;;;;;;;23.21;51.58;102160.16;5084840;28;20123;-59
2022/05/20 01:08:03;;;;;;;2.30;1.38;;;;;;;23.21;51.55;102157.44;5077910;28;20052;-61
2022/05/20 01:10:28;;;;;;;4.07;1.98;;;;;;;23.20;51.72;102163.88;5084163;28;20115;-60
2022/05/20 01:12:54;;;;;;;1.65;1.23;;;;;;;23.20;51.78;102155.75;5076214;28;20033;-61
2022/05/20 01:15:19;;;;;;;4.43;1.70;;;;;;;23.20;51.50;102163.88;5069605;28;20044;-60
2022/05/20 01:17:45;;;;;;;1.55;1.20;;;;;;;23.19;51.33;102160.31;5082060;28;20043;-60
2022/05/20 01:20:18;;;;;;;1.15;0.90;;;;;;;23.19;51.33;102162.16;5078866;28;20031;-60
2022/05/20 01:22:47;;;;;;;1.90;1.15;;;;;;;23.18;51.07;102164.03;5080621;28;20027;-60
2022/05/20 01:25:12;;;;;;;1.25;1.00;;;;;;;23.17;51.30;102161.50;5077204;28;20095;-60
2022/05/20 01:27:42;;;;;;;1.10;0.90;;;;;;;23.18;50.83;102165.91;5084935;28;20055;-60
2022/05/20 01:30:09;;;;;;;1.60;1.00;;;;;;;23.16;50.90;102168.78;5076493;28;20024;-60
2022/05/20 01:32:34;;;;;;;2.17;1.38;;;;;;;23.17;51.14;102162.34;5084107;28;20032;-60
2022/05/20 01:34:59;;;;;;;1.42;0.85;;;;;;;23.15;51.03;102166.22;5075891;28;20028;-60
2022/05/20 01:37:25;;;;;;;1.30;1.10;;;;;;;23.15;50.71;102160.81;5076588;28;20035;-60
2022/05/20 01:39:50;;;;;;;1.95;1.25;;;;;;;23.15;50.97;102168.94;5084289;28;20088;-59
2022/05/20 01:42:21;;;;;;;1.90;1.67;;;;;;;23.13;50.74;102163.69;5076200;28;20043;-60
2022/05/20 01:44:54;;;;;;;1.95;1.30;;;;;;;23.14;50.87;102164.53;5075009;28;20033;-60
2022/05/20 01:47:27;;;;;;;1.45;1.20;;;;;;;23.14;50.47;102164.53;5076065;28;20024;-60
2022/05/20 01:50:11;;;;;;;1.20;0.90;;;;;;;23.13;50.33;102162.84;5076477;28;20059;-60
2022/05/20 01:52:42;;;;;;;1.35;0.98;;;;;;;23.11;50.12;102159.47;5078806;28;20035;-60
2022/05/20 01:55:15;;;;;;;1.40;1.00;;;;;;;23.11;50.24;102151.31;5082227;28;20037;-59
2022/05/20 01:57:45;;;;;;;1.83;1.17;;;;;;;23.10;50.19;102144.19;5082976;28;20416;-60
2022/05/20 02:00:16;;;;;;;1.38;0.90;;;;;;;23.10;50.20;102146.88;5083593;28;20048;-60
2022/05/20 02:03:04;;;;;;;1.25;1.00;;;;;;;23.09;49.95;102142.50;5076422;28;20041;-60
2022/05/20 02:05:44;;;;;;;1.20;1.00;;;;;;;23.09;50.03;102147.91;5075935;28;20035;-60
2022/05/20 02:08:23;;;;;;;0.80;0.70;;;;;;;23.07;50.13;102139.09;5083963;28;20035;-60
2022/05/20 02:10:51;;;;;;;1.20;0.85;;;;;;;23.08;49.97;102129.94;5076546;28;20062;-60
2022/05/20 02:13:17;;;;;;;1.45;1.02;;;;;;;23.01;49.86;102129.75;5081041;28;20035;-60
2022/05/20 02:15:47;;;;;;;1.38;1.08;;;;;;;23.01;50.07;102127.03;5081735;28;20032;-60
2022/05/20 02:18:31;;;;;;;1.70;1.00;;;;;;;23.06;49.69;102121.13;5048122;28;20037;-60
2022/05/20 02:21:02;;;;;;;8.98;2.13;;;;;;;23.04;49.92;102124.00;5078493;28;20037;-60
2022/05/20 02:23:31;;;;;;;1.23;0.80;;;;;;;23.04;49.79;102124.00;5080914;28;20922;-60
2022/05/20 02:26:01;;;;;;;1.13;0.70;;;;;;;22.97;49.83;102111.28;5078576;28;20028;-60
2022/05/20 02:28:30;;;;;;;0.63;0.60;;;;;;;23.03;49.88;102121.47;5074167;28;20040;-60
2022/05/20 02:30:56;;;;;;;1.30;0.90;;;;;;;23.02;49.75;102108.91;5082486;28;20580;-60
2022/05/20 02:33:23;;;;;;;1.58;1.30;;;;;;;22.98;49.42;102102.97;5082408;28;20035;-60
2022/05/20 02:35:48;;;;;;;1.05;0.60;;;;;;;23.00;49.51;102105.53;5083016;28;20036;-60
2022/05/20 02:38:20;;;;;;;0.65;0.60;;;;;;;23.00;49.45;102106.38;5075520;28;20458;-60
2022/05/20 02:40:52;;;;;;;1.17;0.98;;;;;;;23.00;49.76;102105.53;5075855;28;20051;-60
2022/05/20 02:43:18;;;;;;;1.27;0.80;;;;;;;22.99;49.60;102126.38;5082864;28;20084;-60
2022/05/20 02:45:46;;;;;;;0.70;0.60;;;;;;;22.98;49.40;102121.97;5083141;28;20030;-60
2022/05/20 02:48:12;;;;;;;0.93;0.70;;;;;;;22.97;49.64;102128.38;5074232;28;20031;-60
2022/05/20 02:50:38;;;;;;;0.98;0.75;;;;;;;22.97;49.33;102117.53;5072662;28;20020;-60
2022/05/20 02:53:03;;;;;;;0.80;0.70;;;;;;;22.96;49.60;102118.56;5081686;28;20096;-59
2022/05/20 02:55:28;;;;;;;1.33;0.60;;;;;;;22.92;49.39;102114.47;5076145;28;20025;-59
2022/05/20 02:57:54;;;;;;;1.27;0.77;;;;;;;22.93;49.16;102117.00;5083094;28;20420;-60
2022/05/20 03:05:47;;;;;;;0.90;0.68;;;;;;;22.91;49.25;102119.06;5074282;28;20106;-60
2022/05/20 03:08:13;;;;;;;0.85;0.70;;;;;;;22.92;49.38;102114.47;5074887;28;20024;-60
2022/05/20 03:10:38;;;;;;;0.80;0.73;;;;;;;22.90;49.45;102103.81;5082696;28;20059;-60
2022/05/20 03:13:06;;;;;;;0.88;0.70;;;;;;;22.90;49.03;102106.53;5082859;28;20032;-60
2022/05/20 03:15:32;;;;;;;0.82;0.60;;;;;;;22.85;49.39;102100.72;5083182;28;20047;-60
2022/05/20 03:17:57;;;;;;;2.20;0.75;;;;;;;22.89;49.08;102114.78;5073814;28;20101;-60
2022/05/20 03:20:23;;;;;;;1.08;0.88;;;;;;;22.88;49.10;102116.63;5082677;28;20023;-60
2022/05/20 03:22:48;;;;;;;0.90;0.68;;;;;;;22.88;49.21;102118.50;5082854;28;20045;-60
2022/05/20 03:25:14;;;;;;;2.15;1.15;;;;;;;22.85;49.11;102116.13;5073271;28;20021;-60
2022/05/20 03:27:39;;;;;;;1.20;0.60;;;;;;;22.86;49.09;102117.84;5081215;28;20120;-60
2022/05/20 03:30:07;;;;;;;0.90;0.70;;;;;;;22.80;48.87;102100.34;5082907;28;20043;-60
2022/05/20 03:32:32;;;;;;;1.15;0.75;;;;;;;22.86;49.05;102125.97;5081957;28;20025;-60
2022/05/20 03:34:58;;;;;;;0.75;0.68;;;;;;;22.83;48.82;102113.59;5074427;28;20025;-60
2022/05/20 03:37:24;;;;;;;1.88;1.00;;;;;;;22.84;49.12;102109.00;5082321;28;20032;-60
2022/05/20 03:39:49;;;;;;;1.27;0.90;;;;;;;22.84;49.04;102109.84;5072588;28;20125;-60
2022/05/20 03:42:15;;;;;;;1.05;0.60;;;;;;;22.84;49.01;102114.44;5082367;28;20020;-60
2022/05/20 03:44:40;;;;;;;0.98;0.80;;;;;;;22.83;48.87;102124.44;5082751;28;20477;-60
2022/05/20 03:47:06;;;;;;;0.95;0.80;;;;;;;22.81;48.86;102118.34;5079855;28;20036;-60
2022/05/20 03:49:31;;;;;;;1.00;0.77;;;;;;;22.82;49.26;102119.19;5074353;28;20115;-60
2022/05/20 03:51:57;;;;;;;1.17;0.80;;;;;;;22.81;48.76;102126.47;5089292;28;20028;-60
2022/05/20 03:54:25;;;;;;;0.93;0.70;;;;;;;22.80;48.67;102124.75;5081281;28;20059;-60
2022/05/20 03:56:50;;;;;;;1.27;0.83;;;;;;;22.81;48.75;102128.31;5073879;28;20039;-60
2022/05/20 03:59:16;;;;;;;0.90;0.80;;;;;;;22.79;48.74;102127.63;5082639;28;20356;-60
2022/05/20 04:01:57;;;;;;;0.80;0.70;;;;;;;22.79;48.79;102130.34;5081908;28;20036;-60
2022/05/20 04:04:32;;;;;;;1.08;0.88;;;;;;;22.78;48.81;102124.09;5076277;28;20095;-60
2022/05/20 04:07:08;;;;;;;1.73;0.63;;;;;;;22.77;48.66;102126.94;5064400;28;20648;-60
2022/05/20 04:09:34;;;;;;;1.50;0.80;;;;;;;22.76;48.96;102139.66;5082859;28;20087;-60
2022/05/20 04:12:03;;;;;;;1.30;0.85;;;;;;;22.76;48.61;102136.94;5073886;28;20040;-60
2022/05/20 04:14:28;;;;;;;1.05;0.70;;;;;;;22.76;48.64;102142.34;5074300;28;20021;-60
2022/05/20 04:16:57;;;;;;;0.70;0.70;;;;;;;22.75;48.77;102156.94;5073157;28;20031;-60
2022/05/20 04:19:30;;;;;;;1.00;0.60;;;;;;;22.76;48.70;102155.91;5081540;28;20027;-60
2022/05/20 04:21:58;;;;;;;0.80;0.77;;;;;;;22.75;48.58;102151.50;5073554;28;20117;-60
2022/05/20 04:24:24;;;;;;;0.63;0.60;;;;;;;22.73;48.81;102153.56;5073095;28;20086;-60
2022/05/20 04:26:50;;;;;;;0.95;0.60;;;;;;;22.69;48.70;102153.03;5082065;28;20591;-60
2022/05/20 04:29:15;;;;;;;0.80;0.55;;;;;;;22.74;48.66;102152.53;5071115;28;20456;-60
2022/05/20 04:31:44;;;;;;;0.77;0.70;;;;;;;22.74;48.54;102151.69;5076693;28;20363;-60
2022/05/20 04:34:09;;;;;;;;;;;;;;;22.75;48.56;102156.09;5080819;28;20025;-60
2022/05/20 04:36:34;;;;;;;0.70;0.60;;;;;;;22.73;48.75;102150.00;5081489;28;19912;-60
2022/05/20 04:39:00;;;;;;;1.92;0.70;;;;;;;22.72;48.44;102138.28;5085027;28;20029;-60
2022/05/20 04:46:59;;;;;;;0.75;0.60;;;;;;;22.71;48.27;102155.56;5084463;28;20066;-60
2022/05/20 04:49:29;;;;;;;0.95;0.70;;;;;;;22.72;48.39;102151.84;5083947;28;20028;-60
2022/05/20 04:51:55;;;;;;;0.75;0.50;;;;;;;22.71;48.43;102150.16;5084060;28;20024;-60
2022/05/20 04:57:05;;;;;;;0.90;0.60;;;;;;;22.71;48.48;102152.84;5084327;28;20035;-59
2022/05/20 04:59:36;;;;;;;1.15;0.80;;;;;;;22.71;48.43;102152.84;5083655;28;20063;-60
2022/05/20 05:02:02;;;;;;;0.95;0.68;;;;;;;22.70;48.49;102143.88;5076170;28;20084;-60
2022/05/20 05:04:27;;;;;;;1.58;0.63;;;;;;;22.71;48.38;102139.31;5074763;28;20043;-60
2022/05/20 05:06:52;;;;;;;1.08;0.93;;;;;;;22.72;48.42;102141.00;5081463;28;20032;-60
2022/05/20 05:09:18;;;;;;;1.20;0.80;;;;;;;22.72;48.32;102143.69;5077359;28;20059;-60
2022/05/20 05:11:43;;;;;;;0.70;0.70;;;;;;;22.63;48.53;102128.44;5081361;28;20492;-60
2022/05/20 05:14:10;;;;;;;0.95;0.68;;;;;;;22.71;48.36;102153.69;5081921;28;20411;-59
2022/05/20 05:16:37;;;;;;;1.20;0.80;;;;;;;22.68;48.31;102148.63;5081169;28;20112;-60
2022/05/20 05:19:02;;;;;;;1.80;0.70;;;;;;;22.73;48.49;102156.28;5084913;28;20027;-60
2022/05/20 05:21:27;;;;;;;1.08;0.80;;;;;;;22.73;48.48;102163.56;5083048;28;20448;-60
2022/05/20 05:23:54;;;;;;;1.40;0.90;;;;;;;22.73;48.32;102147.28;5080628;28;20031;-60
2022/05/20 05:26:20;;;;;;;1.25;0.82;;;;;;;22.73;48.44;102150.00;5081420;28;20025;-59
2022/05/20 05:28:45;;;;;;;1.20;0.82;;;;;;;22.73;48.73;102144.56;5084309;28;20043;-62
2022/05/20 05:31:10;;;;;;;1.20;0.90;;;;;;;22.73;48.69;102141.88;5083625;28;20028;-61
2022/05/20 05:33:36;;;;;;;1.75;1.02;;;;;;;22.74;48.60;102140.84;5083509;28;20048;-61
2022/05/20 05:36:01;;;;;;;1.20;1.00;;;;;;;22.72;48.87;102143.69;5082343;28;20036;-63
2022/05/20 05:38:26;;;;;;;1.15;0.98;;;;;;;22.74;48.92;102140.84;5083681;28;20032;-62
2022/05/20 05:40:52;;;;;;;1.45;1.10;;;;;;;22.74;48.98;102138.13;5081223;28;20058;-61
2022/05/20 05:43:17;;;;;;;3.10;1.65;;;;;;;22.74;49.11;102144.41;5082704;28;20024;-61
2022/05/20 05:45:42;;;;;;;2.60;1.45;;;;;;;22.75;48.97;102140.66;5082635;28;20039;-61
2022/05/20 05:48:09;;;;;;;3.80;2.30;;;;;;;22.76;49.30;102136.09;5081354;28;20021;-60
2022/05/20 05:50:36;;;;;;;2.30;1.58;;;;;;;22.68;49.40;102134.19;5072454;28;20077;-59
2022/05/20 05:53:19;;;;;;;3.05;2.10;;;;;;;22.75;49.42;102147.97;5083961;28;20027;-59
2022/05/20 05:55:47;;;;;;;3.30;2.38;;;;;;;22.74;50.16;102147.13;5076147;28;20029;-59
2022/05/20 05:58:16;;;;;;;3.67;2.72;;;;;;;22.74;50.46;102151.69;5076674;28;20036;-55
2022/05/20 06:00:41;;;;;;;;;;;;;;;22.74;50.15;102157.97;5074748;28;20036;-57
2022/05/20 06:03:07;;;;;;;4.22;3.13;;;;;;;22.73;50.46;102153.56;5080523;28;19909;-58
2022/05/20 06:05:33;;;;;;;3.20;2.58;;;;;;;22.67;50.75;102140.63;5075518;28;20064;-56
2022/05/20 06:07:59;;;;;;;5.28;3.78;;;;;;;22.72;50.61;102149.13;5074989;28;20025;-55
2022/05/20 06:10:25;;;;;;;4.38;3.03;;;;;;;22.72;51.04;102149.13;5072939;28;20561;-57
2022/05/20 06:12:50;;;;;;;4.65;3.75;;;;;;;22.67;51.10;102141.47;5076862;28;20021;-59
2022/05/20 06:15:18;;;;;;;5.13;3.40;;;;;;;22.70;51.20;102135.75;5077389;28;20500;-58
2022/05/20 06:17:43;;;;;;;4.90;3.70;;;;;;;22.72;51.30;102135.56;5070307;28;20088;-59
2022/05/20 06:20:09;;;;;;;6.05;4.07;;;;;;;22.73;51.40;102142.72;5077123;28;20039;-56
2022/05/20 06:22:34;;;;;;;5.15;3.22;;;;;;;22.73;51.25;102133.72;5078997;28;20031;-58
2022/05/20 06:25:00;;;;;;;5.35;3.53;;;;;;;22.73;51.24;102136.44;5074176;28;20017;-58
2022/05/20 06:27:25;;;;;;;5.50;3.83;;;;;;;22.73;51.25;102131.03;5069604;28;20035;-59
2022/05/20 06:29:51;;;;;;;4.50;3.90;;;;;;;22.73;51.25;102129.16;5073527;28;20117;-58
2022/05/20 06:32:16;;;;;;;4.35;3.75;;;;;;;22.74;51.35;102133.56;5072762;28;20056;-59
2022/05/20 06:40:13;;;;;;;4.85;3.47;;;;;;;22.74;51.34;102141.69;5072759;28;20052;-61
2022/05/20 06:42:38;;;;;;;5.30;3.90;;;;;;;22.73;51.42;102123.72;5071680;28;20031;-63
2022/05/20 06:45:04;;;;;;;5.95;4.20;;;;;;;22.71;51.43;102125.75;5080670;28;20280;-62
2022/05/20 06:47:30;;;;;;;4.82;3.97;;;;;;;22.73;51.29;102121.03;5076666;28;20027;-62
2022/05/20 06:49:55;;;;;;;5.40;3.97;;;;;;;22.73;51.37;102117.47;5073284;28;20404;-63
2022/05/20 06:52:20;;;;;;;4.40;3.45;;;;;;;22.68;51.11;102105.25;5075477;28;20067;-62
2022/05/20 06:54:45;;;;;;;5.45;3.25;;;;;;;22.73;51.13;102117.47;5069838;28;20071;-63
2022/05/20 06:57:10;;;;;;;4.28;3.08;;;;;;;22.72;51.11;102113.88;5078629;28;20025;-62
2022/05/20 06:59:36;;;;;;;4.70;3.03;;;;;;;22.74;51.21;102114.56;5075128;28;20040;-60
2022/05/20 07:02:01;;;;;;;5.57;4.20;;;;;;;22.74;51.14;102111.88;5076953;28;20051;-61
2022/05/20 07:04:29;;;;;;;4.40;3.58;;;;;;;22.74;51.10;102111.88;5069500;28;20028;-62
2022/05/20 07:06:55;;;;;;;4.55;3.25;;;;;;;22.74;51.12;102106.44;5075708;28;20032;-60
2022/05/20 07:09:20;;;;;;;3.97;3.33;;;;;;;22.74;51.34;102108.31;5075570;28;20040;-65
2022/05/20 07:11:46;;;;;;;3.13;2.30;;;;;;;22.75;51.05;102112.72;5074564;28;20040;-62
2022/05/20 07:14:11;;;;;;;4.18;3.55;;;;;;;22.74;50.87;102103.72;5072693;28;20538;-60
2022/05/20 07:16:36;;;;;;;3.97;3.55;;;;;;;22.70;50.88;102095.06;5071851;28;20040;-63
2022/05/20 07:19:02;;;;;;;7.30;4.30;;;;;;;22.71;51.19;102091.34;5074834;28;20028;-64
2022/05/20 07:21:27;;;;;;;7.47;4.18;;;;;;;22.70;51.27;102095.06;5069855;28;20032;-62
2022/05/20 07:23:53;;;;;;;4.18;3.53;;;;;;;22.66;51.08;102090.16;5073804;28;20744;-62
2022/05/20 07:26:19;;;;;;;4.70;2.90;;;;;;;22.71;50.17;102090.50;5076141;28;20020;-62
2022/05/20 07:28:44;;;;;;;4.78;2.92;;;;;;;22.69;49.83;102079.84;5076780;28;20028;-61
2022/05/20 07:31:09;;;;;;;4.07;3.00;;;;;;;22.68;49.66;102071.84;5073101;28;20032;-62
2022/05/20 07:33:37;;;;;;;3.90;3.20;;;;;;;22.66;49.52;102068.47;5068204;28;20033;-61
2022/05/20 07:36:02;;;;;;;4.20;2.78;;;;;;;22.65;49.34;102059.47;5080386;28;20033;-62
2022/05/20 07:38:28;;;;;;;4.32;2.80;;;;;;;22.62;49.56;102051.69;5076805;28;20035;-61
2022/05/20 07:40:57;;;;;;;3.47;3.00;;;;;;;22.61;49.35;102039.16;5068494;28;20040;-61
2022/05/20 07:43:24;;;;;;;;;;;;;;;22.62;49.44;102032.69;5078082;28;20028;-62
2022/05/20 07:45:50;;;;;;;4.68;2.83;;;;;;;22.60;49.45;102020.31;5076200;28;19912;-60
2022/05/20 07:48:15;;;;;;;4.50;3.05;;;;;;;22.59;49.45;102022.19;5075618;28;20032;-60
2022/05/20 07:50:47;;;;;;;4.32;2.40;;;;;;;22.61;49.30;102019.31;5068113;28;20036;-63
2022/05/20 07:53:19;;;;;;;4.00;2.80;;;;;;;22.60;49.23;102010.34;5067157;28;20059;-65
2022/05/20 07:55:49;;;;;;;2.75;2.20;;;;;;;22.61;49.33;102016.63;5077766;28;20051;-59
2022/05/20 07:58:17;;;;;;;3.15;2.55;;;;;;;22.61;49.37;102019.31;5066065;28;20025;-60
2022/05/20 08:00:43;;;;;;;3.35;2.45;;;;;;;22.63;49.37;102020.00;5074277;28;20106;-60
2022/05/20 08:03:10;;;;;;;3.80;2.50;;;;;;;22.64;49.40;102017.13;5073863;28;20035;-61
2022/05/20 08:05:35;;;;;;;3.38;2.42;;;;;;;22.65;49.38;102009.84;5076571;28;20485;-59
2022/05/20 08:08:04;;;;;;;4.55;2.80;;;;;;;22.66;49.44;102019.66;5075556;28;20033;-60
2022/05/20 08:10:32;;;;;;;3.00;2.25;;;;;;;22.64;48.96;102011.72;5065270;28;20028;-61
2022/05/20 08:12:57;;;;;;;4.68;2.83;;;;;;;22.66;49.45;101996.13;5078201;28;20033;-62
2022/05/20 08:15:23;;;;;;;3.03;2.47;;;;;;;22.66;49.53;102006.97;5079486;28;20025;-61
2022/05/20 08:17:48;;;;;;;3.47;2.75;;;;;;;22.68;49.30;101994.09;5075810;28;20086;-64
2022/05/20 08:20:21;;;;;;;3.03;2.65;;;;;;;22.69;49.45;101998.50;5077403;28;20024;-60
2022/05/20 08:22:47;;;;;;;3.40;2.45;;;;;;;22.70;49.42;101993.91;5076616;28;20035;-64
2022/05/20 08:25:12;;;;;;;3.50;2.67;;;;;;;22.70;49.13;101989.34;5076754;28;20020;-62
2022/05/20 08:27:38;;;;;;;3.10;2.30;;;;;;;22.71;49.25;101987.47;5077558;28;20115;-61
2022/05/20 08:30:16;;;;;;;3.38;2.42;;;;;;;22.73;49.23;101990.03;5080071;28;20080;-67
2022/05/20 08:32:41;;;;;;;3.63;2.50;;;;;;;22.74;49.23;101989.00;5073640;28;20048;-61
2022/05/20 08:35:07;;;;;;;3.22;2.55;;;;;;;22.74;49.08;101981.72;5079367;28;20040;-60
2022/05/20 08:37:37;;;;;;;3.53;2.42;;;;;;;22.75;49.39;101977.16;5074875;28;20025;-60
2022/05/20 08:40:03;;;;;;;3.72;2.45;;;;;;;22.75;49.30;101978.00;5075201;28;20029;-60
2022/05/20 08:42:31;;;;;;;3.72;2.50;;;;;;;22.75;49.23;101978.00;5077324;28;20020;-60
2022/05/20 08:44:57;;;;;;;4.67;2.47;;;;;;;22.77;49.41;101973.25;5080643;28;20052;-60
2022/05/20 08:47:40;;;;;;;3.00;2.13;;;;;;;22.77;49.20;101961.53;5073315;28;20288;-61
2022/05/20 08:50:13;;;;;;;2.45;1.92;;;;;;;22.75;49.06;101950.03;5076297;28;20024;-60
2022/05/20 08:52:38;;;;;;;2.50;2.15;;;;;;;22.79;49.27;101954.94;5079271;28;20039;-62
2022/05/20 08:55:04;;;;;;;3.15;2.30;;;;;;;22.80;48.95;101953.94;5079387;28;20041;-62
2022/05/20 08:57:34;;;;;;;3.50;2.20;;;;;;;22.80;49.22;101944.94;5078069;28;20092;-62
2022/05/20 09:00:01;;;;;;;3.03;2.40;;;;;;;22.79;49.38;101935.97;5077588;28;20052;-62
2022/05/20 09:02:26;;;;;;;2.55;2.03;;;;;;;22.80;49.05;101937.66;5071104;28;20024;-61
2022/05/20 09:04:52;;;;;;;3.55;1.90;;;;;;;22.71;49.24;101917.00;5078206;28;20047;-62
2022/05/20 09:07:19;;;;;;;3.35;2.17;;;;;;;22.79;49.33;101927.84;5075836;28;20055;-62
2022/05/20 09:09:51;;;;;;;2.78;2.25;;;;;;;22.79;49.28;101929.69;5076572;28;20037;-62
2022/05/20 09:12:28;;;;;;;2.70;1.95;;;;;;;22.81;48.92;101922.22;5076264;28;20052;-61
2022/05/20 09:17:48;;;;;;;2.80;2.30;;;;;;;22.77;48.99;101904.59;5070444;28;20039;-62
2022/05/20 09:20:17;;;;;;;3.60;2.92;;;;;;;22.75;48.95;101891.22;5080293;28;20096;-61
2022/05/20 09:22:53;;;;;;;3.22;2.67;;;;;;;22.75;49.40;101885.81;5081301;28;20029;-62
2022/05/20 09:25:22;;;;;;;3.47;2.85;;;;;;;22.75;48.91;101874.13;5074537;28;20025;-62
2022/05/20 09:27:47;;;;;;;;;;;;;;;22.74;49.21;101870.56;5076133;28;20047;-59
2022/05/20 09:30:15;;;;;;;4.22;2.45;;;;;;;22.74;49.14;101857.00;5076141;28;19912;-60
2022/05/20 09:32:47;;;;;;;4.35;3.15;;;;;;;22.73;49.00;101854.47;5070553;28;20047;-58
2022/05/20 09:35:19;;;;;;;4.60;2.72;;;;;;;22.73;49.12;101854.47;5070827;28;20060;-61
2022/05/20 09:37:49;;;;;;;6.95;2.80;;;;;;;22.71;49.22;101850.06;5073860;28;20135;-61
2022/05/20 09:40:19;;;;;;;4.28;2.50;;;;;;;22.72;48.85;101850.91;5077104;28;20035;-63
2022/05/20 09:43:01;;;;;;;4.60;2.80;;;;;;;22.72;49.99;101853.59;5073139;28;20032;-61
2022/05/20 09:45:27;;;;;;;4.05;2.88;;;;;;;22.69;50.46;101841.25;5077395;28;20021;-61
2022/05/20 09:47:54;;;;;;;4.00;2.33;;;;;;;22.67;50.33;101843.28;5074951;28;20031;-63
2022/05/20 09:51:24;;;;;;;2.70;1.88;;;;;;;22.66;50.29;101835.34;5078536;28;20025;-59
2022/05/20 09:54:29;;;;;;;2.95;2.17;;;;;;;22.64;50.28;101823.78;5017595;28;20181;-59
2022/05/20 09:56:58;;;;;;;3.80;2.25;;;;;;;22.64;50.60;101826.50;4988869;28;20038;-60
2022/05/20 09:59:56;;;;;;;4.60;2.03;;;;;;;22.62;50.62;101832.09;5017072;28;20030;-61
2022/05/20 10:02:34;;;;;;;3.58;2.08;;;;;;;22.61;50.82;101824.16;5018380;28;20041;-59
2022/05/20 10:05:05;;;;;;;2.33;2.00;;;;;;;22.61;50.61;101826.88;5003181;28;20029;-59
2022/05/20 10:07:38;;;;;;;4.50;2.33;;;;;;;22.61;50.78;101821.44;5018373;28;20287;-60
2022/05/20 10:10:20;;;;;;;2.55;2.35;;;;;;;22.61;50.83;101822.28;5015620;28;20034;-61
2022/05/20 10:12:47;;;;;;;2.25;1.80;;;;;;;22.63;50.69;101822.09;5018785;28;20029;-61
2022/05/20 10:15:24;;;;;;;3.20;1.80;;;;;;;22.68;50.75;101819.72;5014433;28;20041;-61
2022/05/20 10:18:12;;;;;;;2.50;1.65;;;;;;;22.74;50.45;101827.19;4994176;28;20048;-61
2022/05/20 10:20:45;;;;;;;4.38;1.73;;;;;;;22.78;50.04;101808.72;5017680;28;20038;-61
2022/05/20 10:23:37;;;;;;;2.80;1.95;;;;;;;22.84;50.23;101810.72;5019175;28;20034;-63
2022/05/20 10:26:24;;;;;;;2.83;1.70;;;;;;;22.86;50.29;101801.41;5003221;28;20030;-61
2022/05/20 10:34:39;;;;;;;3.33;1.88;;;;;;;22.91;50.13;101771.94;5071814;28;20798;-60
2022/05/20 10:37:07;;;;;;;3.28;1.77;;;;;;;22.95;50.14;101757.00;5078829;28;20040;-61
2022/05/20 10:39:51;;;;;;;2.67;1.90;;;;;;;22.96;50.12;101738.88;5077120;28;20044;-61
2022/05/20 10:42:29;;;;;;;3.33;1.77;;;;;;;22.99;50.23;101735.81;5074593;28;20024;-61
2022/05/20 10:50:34;;;;;;;3.50;1.80;;;;;;;23.05;49.76;101702.53;5072520;28;20113;-61
2022/05/20 10:53:11;;;;;;;3.03;2.00;;;;;;;23.07;49.68;101688.81;5073826;28;20549;-64
2022/05/20 10:55:46;;;;;;;2.85;1.98;;;;;;;23.09;49.64;101681.34;5070227;28;20041;-57
2022/05/20 10:59:02;;;;;;;3.67;2.55;;;;;;;23.10;49.66;101678.44;5071381;28;20043;-58
2022/05/20 11:01:37;;;;;;;3.55;1.92;;;;;;;23.12;49.63;101673.69;5048124;28;20088;-61
2022/05/20 11:04:25;;;;;;;3.35;1.98;;;;;;;23.12;49.19;101654.72;5017198;28;20084;-60
2022/05/20 11:07:14;;;;;;;3.47;2.03;;;;;;;23.13;49.10;101648.25;5039253;28;20035;-61
2022/05/20 11:09:39;;;;;;;;;;;;;;;23.16;49.37;101647.06;5034011;28;20122;-60
2022/05/20 11:12:05;;;;;;;4.53;2.80;;;;;;;23.14;49.02;101638.25;5045802;28;19916;-61
2022/05/20 11:15:01;;;;;;;6.72;2.95;;;;;;;23.15;48.93;101626.34;5039779;28;20299;-61
2022/05/20 11:17:50;;;;;;;4.10;2.83;;;;;;;23.16;49.04;101612.63;5044958;28;20053;-61
2022/05/20 11:20:44;;;;;;;5.30;3.05;;;;;;;23.16;49.10;101593.66;5041960;28;20093;-63
2022/05/20 11:23:22;;;;;;;4.78;2.60;;;;;;;23.11;48.97;101576.22;5009767;28;20034;-61
2022/05/20 11:25:59;;;;;;;5.72;2.58;;;;;;;23.17;48.78;101576.34;5044010;28;20060;-61
2022/05/20 11:29:02;;;;;;;3.15;2.45;;;;;;;23.17;48.71;101570.91;5045455;28;20037;-59
2022/05/20 11:31:39;;;;;;;3.20;2.15;;;;;;;23.18;48.74;101563.63;5044249;28;20066;-60
2022/05/20 11:34:19;;;;;;;4.50;2.80;;;;;;;23.17;48.73;101549.22;5040435;28;20038;-59
2022/05/20 11:37:04;;;;;;;5.45;2.65;;;;;;;23.18;48.81;101555.47;5041769;28;20037;-61
2022/05/20 11:39:59;;;;;;;3.13;2.38;;;;;;;23.17;48.68;101538.34;5076893;28;20101;-61
2022/05/20 11:42:43;;;;;;;4.88;2.60;;;;;;;23.16;48.88;101523.13;5075047;28;20028;-60
2022/05/20 11:45:16;;;;;;;3.17;2.15;;;;;;;23.16;48.55;101514.13;5073146;28;20029;-61
2022/05/20 11:47:58;;;;;;;3.67;2.58;;;;;;;23.15;48.66;101512.44;5076124;28;20364;-59
2022/05/20 11:50:36;;;;;;;3.50;3.10;;;;;;;23.15;48.68;101496.16;5079213;28;20039;-60
2022/05/20 11:53:12;;;;;;;3.60;2.25;;;;;;;23.15;48.66;101496.16;5062327;28;20119;-59
2022/05/20 11:55:49;;;;;;;4.90;2.30;;;;;;;23.14;48.58;101481.75;5080593;28;20033;-60
2022/05/20 11:58:40;;;;;;;3.38;2.33;;;;;;;23.15;48.45;101477.16;5072617;28;20051;-57
2022/05/20 12:01:06;;;;;;;4.53;2.40;;;;;;;23.15;48.45;101463.59;5076831;28;20024;-60
2022/05/20 12:06:19;;;;;;;3.97;2.13;;;;;;;23.15;48.50;101448.19;5082494;28;20062;-57
2022/05/20 12:08:45;;;;;;;3.42;2.08;;;;;;;23.15;48.50;101458.16;5076793;28;20032;-59
2022/05/20 12:11:31;;;;;;;5.20;2.47;;;;;;;23.14;48.66;101449.19;5079789;28;20104;-60
2022/05/20 12:14:10;;;;;;;3.30;2.10;;;;;;;23.15;48.44;101450.03;5078560;28;20601;-59
2022/05/20 12:16:59;;;;;;;5.55;2.33;;;;;;;23.14;48.63;101460.03;5078866;28;20028;-59